Time;durP1;ratioP1;P1;durP2;ratioP2;P2;SDS_P1;SDS_P2;PMS_P1;PMS_P2;Temp;Humidity;BMP_temperature;BMP_pressure;BME280_temperature;BME280_humidity;BME280_pressure;Samples;Min_cycle;Max_cycle;Signal;HPM_P1;HPM_P2
2023/10/05 00:01:21;;;;;;;4.30;1.47;;;9.40;99.90;;;;;;5052725;28;20464;-72
2023/10/05 00:03:47;;;;;;;4.90;1.60;;;9.40;99.90;;;;;;5054176;28;20457;-72
2023/10/05 00:06:17;;;;;;;3.13;1.40;;;9.30;99.90;;;;;;5052841;28;20467;-72
2023/10/05 00:08:47;;;;;;;2.30;1.60;;;9.30;99.90;;;;;;5054101;28;20170;-72
2023/10/05 00:11:23;;;;;;;6.87;1.80;;;9.30;99.90;;;;;;5053959;28;20507;-72
2023/10/05 00:14:06;;;;;;;4.43;2.00;;;9.20;99.90;;;;;;5052610;28;20511;-72
2023/10/05 00:16:37;;;;;;;4.83;2.37;;;9.20;99.90;;;;;;5053860;28;20443;-72
2023/10/05 00:19:11;;;;;;;3.93;2.33;;;9.20;99.90;;;;;;5053951;28;20427;-72
2023/10/05 00:21:39;;;;;;;4.83;1.60;;;9.20;99.90;;;;;;5053817;28;20424;-72
2023/10/05 00:24:06;;;;;;;3.00;1.20;;;9.20;99.90;;;;;;5052545;28;20427;-72
2023/10/05 00:26:36;;;;;;;12.73;1.80;;;9.20;99.90;;;;;;5053642;28;20431;-72
2023/10/05 00:29:40;;;;;;;5.40;1.50;;;9.20;99.90;;;;;;5053563;28;20424;-72
2023/10/05 00:32:00;;;;;;;7.00;1.80;;;9.10;99.90;;;;;;5054111;28;20473;-72
2023/10/05 00:34:30;;;;;;;3.67;1.67;;;9.20;99.90;;;;;;5052122;28;20420;-72
2023/10/05 00:37:00;;;;;;;4.50;1.77;;;9.20;99.90;;;;;;5052106;28;20419;-72
2023/10/05 00:39:29;;;;;;;6.13;2.17;;;9.10;99.90;;;;;;5053390;28;20416;-73
2023/10/05 00:44:30;;;;;;;3.40;1.93;;;8.90;99.90;;;;;;5053409;28;20878;-72
2023/10/05 00:47:00;;;;;;;4.80;1.60;;;8.70;99.90;;;;;;5053310;28;20427;-72
2023/10/05 00:49:29;;;;;;;9.30;1.47;;;8.80;99.90;;;;;;5053298;28;20423;-72
2023/10/05 00:52:15;;;;;;;2.93;1.60;;;8.90;99.90;;;;;;5053171;28;20604;-72
2023/10/05 00:54:54;;;;;;;3.07;1.70;;;8.90;99.90;;;;;;5053188;28;20798;-72
2023/10/05 00:57:23;;;;;;;6.00;1.60;;;9.00;99.90;;;;;;5053119;28;20415;-72
2023/10/05 01:03:02;;;;;;;8.83;1.73;;;9.10;99.90;;;;;;5052936;28;20451;-72
2023/10/05 01:05:27;;;;;;;5.27;1.90;;;9.10;99.90;;;;;;5052810;28;20444;-72
2023/10/05 01:07:57;;;;;;;5.03;1.70;;;9.10;99.90;;;;;;5051721;28;20424;-72
2023/10/05 01:12:49;;;;;;;4.07;1.77;;;9.20;99.90;;;;;;5053146;28;20456;-72
2023/10/05 01:15:21;;;;;;;6.40;1.57;;;9.10;99.90;;;;;;5052745;28;20431;-72
2023/10/05 01:17:51;;;;;;;2.23;1.60;;;9.20;99.90;;;;;;5051504;28;20501;-72
2023/10/05 01:22:45;;;;;;;2.07;1.53;;;9.20;99.90;;;;;;5051360;28;20859;-72
2023/10/05 01:25:13;;;;;;;9.80;2.13;;;9.20;99.90;;;;;;5052440;28;20966;-73
2023/10/05 01:27:40;;;;;;;2.13;1.23;;;9.20;99.90;;;;;;5051162;28;20510;-72
2023/10/05 01:30:07;;;;;;;4.03;1.70;;;9.20;99.90;;;;;;5052488;28;20423;-72
2023/10/05 01:32:33;;;;;;;3.47;1.43;;;9.20;99.90;;;;;;5051062;28;20825;-72
2023/10/05 01:34:59;;;;;;;8.43;1.70;;;9.20;99.90;;;;;;5052446;28;20437;-72
2023/10/05 01:37:30;;;;;;;4.37;1.33;;;9.20;99.90;;;;;;5052337;28;20181;-72
2023/10/05 01:39:59;;;;;;;3.50;1.20;;;9.20;99.90;;;;;;5052351;28;20410;-73
2023/10/05 01:42:25;;;;;;;2.83;1.60;;;9.20;99.90;;;;;;5050869;28;20447;-72
2023/10/05 01:44:51;;;;;;;2.23;1.57;;;9.10;99.90;;;;;;5052125;28;20445;-72
2023/10/05 01:47:17;;;;;;;2.00;1.60;;;9.10;99.90;;;;;;5052171;28;20481;-72
2023/10/05 01:49:45;;;;;;;3.80;1.47;;;9.00;99.90;;;;;;5052250;28;20441;-73
2023/10/05 01:52:16;;;;;;;3.87;1.67;;;9.00;99.90;;;;;;5052009;28;20465;-72
2023/10/05 01:54:43;;;;;;;5.13;1.70;;;9.00;99.90;;;;;;5051977;28;20439;-73
2023/10/05 01:57:09;;;;;;;3.33;1.70;;;9.00;99.90;;;;;;5052245;28;20561;-72
2023/10/05 01:59:37;;;;;;;5.30;1.87;;;9.00;99.90;;;;;;5052295;28;20847;-72
2023/10/05 02:02:15;;;;;;;9.47;2.23;;;9.00;99.90;;;;;;5051925;28;20475;-72
2023/10/05 02:04:45;;;;;;;6.60;1.80;;;9.00;99.90;;;;;;5051430;28;20825;-72
2023/10/05 02:07:18;;;;;;;5.60;1.50;;;9.00;99.90;;;;;;5050428;28;20489;-73
2023/10/05 02:09:44;;;;;;;3.07;1.70;;;9.00;99.90;;;;;;5051898;28;20424;-73
2023/10/05 02:12:09;;;;;;;3.20;1.60;;;8.90;99.90;;;;;;5051687;28;20459;-72
2023/10/05 02:14:39;;;;;;;6.37;2.10;;;8.90;99.90;;;;;;5051698;28;20201;-72
2023/10/05 02:17:06;;;;;;;3.73;1.47;;;8.90;99.90;;;;;;5051721;28;20684;-72
2023/10/05 02:19:32;;;;;;;2.97;1.40;;;8.90;99.90;;;;;;5050345;28;20436;-73
2023/10/05 02:22:02;;;;;;;18.87;1.67;;;8.80;99.90;;;;;;5051617;28;20459;-73
2023/10/05 02:24:30;;;;;;;8.47;2.00;;;8.90;99.90;;;;;;5034207;28;20990;-72
2023/10/05 02:29:28;;;;;;;7.70;2.00;;;8.90;99.90;;;;;;5051479;28;20422;-72
2023/10/05 02:35:18;;;;;;;6.37;1.97;;;8.80;99.90;;;;;;5051441;28;20416;-73
2023/10/05 02:37:32;;;;;;;3.57;1.27;;;8.90;99.90;;;;;;5051902;28;20468;-72
2023/10/05 02:39:58;;;;;;;3.40;2.10;;;8.90;99.90;;;;;;5051495;28;20413;-72
2023/10/05 02:42:25;;;;;;;9.17;1.90;;;8.90;99.90;;;;;;5051300;28;20449;-72
2023/10/05 02:44:53;;;;;;;5.80;1.53;;;8.80;99.90;;;;;;5051250;28;20249;-72
2023/10/05 02:47:23;;;;;;;3.70;1.87;;;8.80;99.90;;;;;;5051256;28;20412;-72
2023/10/05 02:49:49;;;;;;;2.00;1.77;;;8.70;99.90;;;;;;5051394;28;20428;-72
2023/10/05 02:52:16;;;;;;;4.27;1.63;;;8.70;99.90;;;;;;5051138;28;20551;-72
2023/10/05 02:54:49;;;;;;;9.13;2.03;;;8.60;99.90;;;;;;5051177;28;20440;-72
2023/10/05 02:57:19;;;;;;;5.03;1.90;;;8.50;99.90;;;;;;5049766;28;20447;-72
2023/10/05 02:59:46;;;;;;;3.67;1.50;;;8.50;99.90;;;;;;5033835;28;20477;-72
2023/10/05 03:02:16;;;;;;;6.27;2.60;;;8.50;99.90;;;;;;5049793;28;20956;-72
2023/10/05 03:04:58;;;;;;;4.77;1.60;;;8.50;99.90;;;;;;5049730;28;20447;-72
2023/10/05 03:07:25;;;;;;;6.03;2.00;;;8.50;99.90;;;;;;5051067;28;20429;-72
2023/10/05 03:09:52;;;;;;;6.10;2.20;;;8.40;99.90;;;;;;5051033;28;20426;-73
2023/10/05 03:12:21;;;;;;;4.80;1.90;;;8.30;99.90;;;;;;5050985;28;20473;-72
2023/10/05 03:14:50;;;;;;;2.83;1.73;;;8.40;99.90;;;;;;5050868;28;20442;-72
2023/10/05 03:17:26;;;;;;;5.57;2.03;;;8.40;99.90;;;;;;5054121;28;20515;-72
2023/10/05 03:19:52;;;;;;;3.33;1.80;;;8.40;99.90;;;;;;5054048;28;20547;-72
2023/10/05 03:22:17;;;;;;;2.23;1.83;;;8.40;99.90;;;;;;5054866;28;20414;-72
2023/10/05 03:24:47;;;;;;;2.53;1.70;;;8.50;99.90;;;;;;5053607;28;20291;-72
2023/10/05 03:27:14;;;;;;;3.83;1.80;;;8.60;99.90;;;;;;5053515;28;20195;-72
2023/10/05 03:29:42;;;;;;;3.33;1.57;;;8.60;99.90;;;;;;5054803;28;20416;-72
2023/10/05 03:34:35;;;;;;;7.03;1.80;;;8.60;99.90;;;;;;5054726;28;20446;-72
2023/10/05 03:37:08;;;;;;;5.63;1.93;;;8.60;99.90;;;;;;5053311;28;20328;-72
2023/10/05 03:39:38;;;;;;;5.90;1.70;;;8.80;99.90;;;;;;5054726;28;20780;-72
2023/10/05 03:42:12;;;;;;;2.40;1.50;;;8.80;99.90;;;;;;5054681;28;20423;-73
2023/10/05 03:44:38;;;;;;;3.60;1.73;;;8.70;99.90;;;;;;5054431;28;20471;-73
2023/10/05 03:47:05;;;;;;;3.10;1.30;;;8.50;99.90;;;;;;5053133;28;21013;-72
2023/10/05 03:49:30;;;;;;;2.40;1.13;;;8.60;99.90;;;;;;5053154;28;20180;-73
2023/10/05 03:51:56;;;;;;;6.50;1.90;;;8.40;99.90;;;;;;5054295;28;20467;-72
2023/10/05 03:54:24;;;;;;;3.13;1.80;;;8.30;99.90;;;;;;5054349;28;20180;-72
2023/10/05 03:56:50;;;;;;;6.33;1.60;;;8.30;99.90;;;;;;5036701;28;20185;-72
2023/10/05 03:59:19;;;;;;;7.30;2.20;;;8.50;99.90;;;;;;5054271;28;20416;-72
2023/10/05 04:01:51;;;;;;;2.87;1.83;;;8.60;99.90;;;;;;5054114;28;20817;-72
2023/10/05 04:04:21;;;;;;;5.43;1.93;;;8.50;99.90;;;;;;5052820;28;20428;-73
2023/10/05 04:06:48;;;;;;;2.73;1.40;;;8.70;99.90;;;;;;5054149;28;20767;-72
2023/10/05 04:09:15;;;;;;;3.67;1.87;;;8.70;99.90;;;;;;5052874;28;20430;-72
2023/10/05 04:11:42;;;;;;;3.03;1.47;;;8.70;99.90;;;;;;5052702;28;20510;-72
2023/10/05 04:14:09;;;;;;;7.90;2.17;;;8.80;99.90;;;;;;5053997;28;20837;-72
2023/10/05 04:16:35;;;;;;;5.70;1.57;;;8.80;99.90;;;;;;5053824;28;20948;-73
2023/10/05 04:19:04;;;;;;;5.73;2.47;;;8.80;99.90;;;;;;5053937;28;20424;-72
2023/10/05 04:21:33;;;;;;;4.70;1.93;;;8.80;99.90;;;;;;5054168;28;20170;-72
2023/10/05 04:23:59;;;;;;;6.73;1.50;;;8.70;99.90;;;;;;5052581;28;20419;-73
2023/10/05 04:26:47;;;;;;;4.10;1.60;;;8.70;99.90;;;;;;5053320;28;20433;-73
2023/10/05 04:29:14;;;;;;;6.60;1.90;;;8.70;99.90;;;;;;5053481;28;20521;-73
2023/10/05 04:31:41;;;;;;;3.50;1.50;;;8.70;99.90;;;;;;5052566;28;20825;-73
2023/10/05 04:34:11;;;;;;;5.20;2.57;;;8.70;99.90;;;;;;5052266;28;21109;-72
2023/10/05 04:36:38;;;;;;;3.60;1.77;;;8.60;99.90;;;;;;5053401;28;20462;-72
2023/10/05 04:39:05;;;;;;;1.93;1.43;;;8.70;99.90;;;;;;5052368;28;20785;-73
2023/10/05 04:41:35;;;;;;;7.47;1.77;;;8.50;99.90;;;;;;5053490;28;20420;-72
2023/10/05 04:44:01;;;;;;;6.10;1.67;;;8.50;99.90;;;;;;5052120;28;20415;-73
2023/10/05 04:46:30;;;;;;;3.03;1.60;;;8.60;99.90;;;;;;5051908;28;20462;-72
2023/10/05 04:49:07;;;;;;;3.93;1.90;;;8.70;99.90;;;;;;5053276;28;20422;-72
2023/10/05 04:51:37;;;;;;;3.43;1.97;;;8.80;99.90;;;;;;5053266;28;20434;-72
2023/10/05 04:54:03;;;;;;;4.87;1.70;;;8.80;99.90;;;;;;5053255;28;20407;-73
2023/10/05 04:56:35;;;;;;;5.37;2.13;;;8.80;99.90;;;;;;5051838;28;20446;-73
2023/10/05 05:07:06;;;;;;;8.03;2.80;;;8.80;99.90;;;;;;5053240;28;20425;-72
2023/10/05 05:09:35;;;;;;;5.50;1.97;;;8.90;99.90;;;;;;5052881;28;20791;-72
2023/10/05 05:12:05;;;;;;;4.10;1.83;;;9.00;99.90;;;;;;5052836;28;20468;-72
2023/10/05 05:14:35;;;;;;;4.60;2.10;;;9.10;99.90;;;;;;5052736;28;20418;-73
2023/10/05 05:17:02;;;;;;;4.83;2.10;;;9.20;99.90;;;;;;5053217;28;20410;-72
2023/10/05 05:19:30;;;;;;;4.33;1.80;;;9.30;99.90;;;;;;5051314;28;20924;-72
2023/10/05 05:21:57;;;;;;;7.80;1.97;;;9.30;99.90;;;;;;5051469;28;20480;-72
2023/10/05 05:24:23;;;;;;;2.10;1.77;;;9.40;99.90;;;;;;5052603;28;20426;-73
2023/10/05 05:26:49;;;;;;;5.67;2.07;;;9.40;99.90;;;;;;5051116;28;20819;-73
2023/10/05 05:29:14;;;;;;;6.10;2.43;;;9.50;99.90;;;;;;5052451;28;20506;-74
2023/10/05 05:31:42;;;;;;;4.80;2.00;;;9.50;99.90;;;;;;5052515;28;20957;-73
2023/10/05 05:34:07;;;;;;;5.43;1.63;;;9.60;99.90;;;;;;5051335;28;20252;-73
2023/10/05 05:36:39;;;;;;;8.73;2.13;;;9.50;99.90;;;;;;5050970;28;20433;-73
2023/10/05 05:39:04;;;;;;;1.97;1.70;;;9.50;99.90;;;;;;5050370;28;20610;-72
2023/10/05 05:41:30;;;;;;;4.93;1.97;;;9.50;99.90;;;;;;5052321;28;20503;-73
2023/10/05 05:43:56;;;;;;;7.30;1.63;;;9.60;99.90;;;;;;5051110;28;20183;-72
2023/10/05 05:46:22;;;;;;;3.40;2.10;;;9.60;99.90;;;;;;5052191;28;20564;-72
2023/10/05 05:48:52;;;;;;;10.73;1.77;;;9.60;99.90;;;;;;5052291;28;20174;-73
2023/10/05 05:51:21;;;;;;;3.90;1.70;;;9.60;99.90;;;;;;5052091;28;21026;-73
2023/10/05 05:53:47;;;;;;;15.37;5.73;;;9.70;99.90;;;;;;5052559;28;20519;-73
2023/10/05 05:56:16;;;;;;;22.80;7.97;;;9.70;99.90;;;;;;5052053;28;20523;-72
2023/10/05 05:58:47;;;;;;;12.17;4.80;;;9.70;99.90;;;;;;5052170;28;20560;-73
2023/10/05 06:01:22;;;;;;;35.53;8.93;;;9.60;99.90;;;;;;5051987;28;20436;-73
2023/10/05 06:03:48;;;;;;;32.60;8.50;;;9.50;99.90;;;;;;5051978;28;20939;-73
2023/10/05 06:06:16;;;;;;;22.80;7.00;;;9.50;99.90;;;;;;5052003;28;20844;-72
2023/10/05 06:08:42;;;;;;;13.10;5.60;;;9.40;99.90;;;;;;5051944;28;20449;-72
2023/10/05 06:11:08;;;;;;;15.67;4.37;;;9.50;99.90;;;;;;5051870;28;20923;-73
2023/10/05 06:13:37;;;;;;;17.27;4.97;;;9.40;99.90;;;;;;5051743;28;20832;-72
2023/10/05 06:16:05;;;;;;;8.97;4.00;;;9.40;99.90;;;;;;5051671;28;20432;-72
2023/10/05 06:18:31;;;;;;;7.00;3.27;;;9.40;99.90;;;;;;5051643;28;20446;-73
2023/10/05 06:20:57;;;;;;;7.73;3.00;;;9.40;99.90;;;;;;5051693;28;20435;-73
2023/10/05 06:23:23;;;;;;;5.23;2.50;;;9.40;99.90;;;;;;5050459;28;20186;-72
2023/10/05 06:25:50;;;;;;;7.43;3.13;;;9.50;99.90;;;;;;5051571;28;20499;-72
2023/10/05 06:28:15;;;;;;;12.30;3.23;;;9.60;99.90;;;;;;5051601;28;20191;-72
2023/10/05 06:30:41;;;;;;;9.70;4.27;;;9.60;99.90;;;;;;5051509;28;20424;-73
2023/10/05 06:33:08;;;;;;;8.47;4.60;;;9.70;99.90;;;;;;5033520;28;20230;-72
2023/10/05 06:35:34;;;;;;;13.77;3.93;;;9.70;99.90;;;;;;5050138;28;20202;-73
2023/10/05 06:37:59;;;;;;;10.37;3.40;;;9.80;99.90;;;;;;5051424;28;20406;-73
2023/10/05 06:40:25;;;;;;;4.80;2.70;;;9.80;99.90;;;;;;5051557;28;20429;-73
2023/10/05 06:42:55;;;;;;;4.57;2.97;;;9.90;99.90;;;;;;5050186;28;20240;-73
2023/10/05 06:45:23;;;;;;;4.27;2.07;;;10.10;99.90;;;;;;5051288;28;20445;-72
2023/10/05 06:47:49;;;;;;;6.40;3.30;;;10.10;99.90;;;;;;5051276;28;20421;-72
2023/10/05 06:50:17;;;;;;;4.20;2.50;;;10.20;99.90;;;;;;5051166;28;20414;-72
2023/10/05 06:52:44;;;;;;;8.20;3.30;;;10.20;99.90;;;;;;5051289;28;20469;-73
2023/10/05 06:55:17;;;;;;;6.93;3.70;;;10.20;99.90;;;;;;5049854;28;20431;-73
2023/10/05 06:57:43;;;;;;;6.07;3.50;;;10.30;99.90;;;;;;5051322;28;20398;-72
2023/10/05 07:00:12;;;;;;;10.23;3.03;;;10.30;99.90;;;;;;5035007;28;20415;-71
2023/10/05 07:02:39;;;;;;;4.50;2.27;;;10.40;99.90;;;;;;5052620;28;20452;-73
2023/10/05 07:05:05;;;;;;;5.77;2.43;;;10.40;99.90;;;;;;5051095;28;20426;-72
2023/10/05 07:07:32;;;;;;;6.73;2.73;;;10.60;99.90;;;;;;5049886;28;20914;-72
2023/10/05 07:09:58;;;;;;;5.93;3.27;;;10.70;99.90;;;;;;5051040;28;20441;-72
2023/10/05 07:12:24;;;;;;;4.70;2.70;;;10.80;99.90;;;;;;5049731;28;20887;-72
2023/10/05 07:14:50;;;;;;;12.83;4.10;;;10.90;99.90;;;;;;5051468;28;20197;-72
2023/10/05 07:17:16;;;;;;;10.83;3.03;;;11.00;99.90;;;;;;5050950;28;20926;-72
2023/10/05 07:19:48;;;;;;;7.20;2.93;;;11.00;99.90;;;;;;5050836;28;20419;-72
2023/10/05 07:22:13;;;;;;;6.00;3.17;;;11.20;99.90;;;;;;5051064;28;20762;-72
2023/10/05 07:24:40;;;;;;;9.40;3.53;;;11.20;99.90;;;;;;5049499;28;20444;-72
2023/10/05 07:27:05;;;;;;;7.93;3.50;;;11.10;99.90;;;;;;5049664;28;20446;-72
2023/10/05 07:29:31;;;;;;;11.53;3.93;;;11.00;99.90;;;;;;5050908;28;20451;-73
2023/10/05 07:31:57;;;;;;;8.40;4.20;;;11.00;99.90;;;;;;5050905;28;20269;-72
2023/10/05 07:34:23;;;;;;;6.60;3.10;;;11.00;99.90;;;;;;5049818;28;20599;-72
2023/10/05 07:36:50;;;;;;;3.40;2.30;;;11.10;99.90;;;;;;5050934;28;20488;-72
2023/10/05 07:39:19;;;;;;;4.63;2.50;;;11.20;99.90;;;;;;5051033;28;20507;-72
2023/10/05 07:41:48;;;;;;;7.60;3.43;;;11.20;99.90;;;;;;5049501;28;20427;-72
2023/10/05 07:44:14;;;;;;;4.37;2.73;;;11.30;99.90;;;;;;5050722;28;20431;-73
2023/10/05 07:46:39;;;;;;;4.40;2.77;;;11.30;99.90;;;;;;5049532;28;20417;-72
2023/10/05 07:49:05;;;;;;;7.87;3.27;;;11.40;99.90;;;;;;5049570;28;20183;-72
2023/10/05 07:51:31;;;;;;;4.83;2.43;;;11.30;99.90;;;;;;5050682;28;20242;-72
2023/10/05 07:53:58;;;;;;;5.50;2.50;;;11.50;99.90;;;;;;5049460;28;20214;-72
2023/10/05 07:56:24;;;;;;;8.23;2.57;;;11.70;99.90;;;;;;5032897;28;20505;-72
2023/10/05 07:58:50;;;;;;;7.83;2.90;;;11.90;99.90;;;;;;5050711;28;20411;-72
2023/10/05 08:01:17;;;;;;;8.43;2.83;;;11.90;99.90;;;;;;5050582;28;20813;-72
2023/10/05 08:03:43;;;;;;;5.50;2.33;;;12.00;99.90;;;;;;5054107;28;20761;-72
2023/10/05 08:06:14;;;;;;;3.77;2.50;;;12.10;99.90;;;;;;5054112;28;20992;-72
2023/10/05 08:08:41;;;;;;;4.70;2.70;;;12.10;99.90;;;;;;5054693;28;20450;-72
2023/10/05 08:11:06;;;;;;;5.77;2.90;;;12.10;99.90;;;;;;5054137;28;20448;-73
2023/10/05 08:13:33;;;;;;;4.03;2.30;;;12.20;99.90;;;;;;5053894;28;20454;-73
2023/10/05 08:15:58;;;;;;;6.10;2.67;;;12.20;99.90;;;;;;5052633;28;20491;-72
2023/10/05 08:18:25;;;;;;;5.90;3.30;;;12.20;99.90;;;;;;5054000;28;20865;-73
2023/10/05 08:20:51;;;;;;;5.70;2.47;;;12.40;99.90;;;;;;5052535;28;20187;-72
2023/10/05 08:23:17;;;;;;;5.83;2.80;;;12.50;99.90;;;;;;5053816;28;20453;-73
2023/10/05 08:25:42;;;;;;;7.30;2.63;;;12.70;99.90;;;;;;5053869;28;20692;-72
2023/10/05 08:28:10;;;;;;;7.20;2.77;;;12.90;99.90;;;;;;5052547;28;20179;-73
2023/10/05 08:30:45;;;;;;;7.20;2.73;;;13.10;99.90;;;;;;5053791;28;20480;-72
2023/10/05 08:33:15;;;;;;;5.83;3.07;;;13.30;99.90;;;;;;5053608;28;21325;-73
2023/10/05 08:35:41;;;;;;;5.83;2.80;;;13.60;99.90;;;;;;5052221;28;20426;-72
2023/10/05 08:38:13;;;;;;;6.33;2.90;;;13.70;99.90;;;;;;5052331;28;20410;-73
2023/10/05 08:40:42;;;;;;;5.13;2.70;;;13.80;99.90;;;;;;5052409;28;20406;-73
2023/10/05 08:43:11;;;;;;;11.60;2.87;;;13.80;99.90;;;;;;5053515;28;20422;-73
2023/10/05 08:45:51;;;;;;;5.63;2.90;;;13.90;99.90;;;;;;5051915;28;20452;-73
2023/10/05 08:48:55;;;;;;;12.53;2.70;;;14.00;99.90;;;;;;5052286;28;20805;-73
2023/10/05 08:51:14;;;;;;;10.60;3.13;;;14.10;99.90;;;;;;5053928;28;20435;-73
2023/10/05 08:53:48;;;;;;;4.90;2.50;;;14.40;99.90;;;;;;5051934;28;20962;-73
2023/10/05 08:56:15;;;;;;;4.93;2.60;;;14.50;99.90;;;;;;5051863;28;20209;-73
2023/10/05 08:58:45;;;;;;;9.33;3.00;;;14.70;99.90;;;;;;5053194;28;20406;-72
2023/10/05 09:01:27;;;;;;;3.43;2.27;;;14.90;99.90;;;;;;5053097;28;20477;-73
2023/10/05 09:03:54;;;;;;;5.93;2.60;;;15.20;99.90;;;;;;5053159;28;21011;-73
2023/10/05 09:06:24;;;;;;;6.33;3.30;;;15.40;99.90;;;;;;5053010;28;20418;-73
2023/10/05 09:11:33;;;;;;;10.63;3.63;;;15.90;99.90;;;;;;5053058;28;20408;-73
2023/10/05 09:14:13;;;;;;;8.07;3.60;;;16.60;99.90;;;;;;5052056;28;20425;-73
2023/10/05 09:16:43;;;;;;;5.80;2.80;;;16.80;99.90;;;;;;5052797;28;20420;-73
2023/10/05 09:19:15;;;;;;;5.90;2.90;;;17.10;99.90;;;;;;5052746;28;20418;-73
2023/10/05 09:21:45;;;;;;;5.10;2.47;;;17.50;99.90;;;;;;5052739;28;20497;-73
2023/10/05 09:24:29;;;;;;;7.33;2.20;;;17.90;99.90;;;;;;5051304;28;20420;-73
2023/10/05 09:27:13;;;;;;;6.53;2.50;;;18.30;99.90;;;;;;5052657;28;20467;-73
2023/10/05 09:29:41;;;;;;;7.00;2.87;;;18.40;99.90;;;;;;5052636;28;20420;-73
2023/10/05 09:32:21;;;;;;;6.23;2.40;;;18.40;99.90;;;;;;5052488;28;20469;-73
2023/10/05 09:34:50;;;;;;;7.57;2.60;;;18.40;99.90;;;;;;5052956;28;20804;-73
2023/10/05 09:37:17;;;;;;;5.03;2.47;;;18.30;99.50;;;;;;5052499;28;20779;-73
2023/10/05 09:39:46;;;;;;;3.67;2.30;;;18.30;99.90;;;;;;5052464;28;20421;-73
2023/10/05 09:42:25;;;;;;;4.37;2.40;;;18.60;99.30;;;;;;5052375;28;20422;-73
2023/10/05 09:44:52;;;;;;;7.77;2.80;;;18.50;98.40;;;;;;5052287;28;20444;-73
2023/10/05 09:47:21;;;;;;;7.23;3.20;;;18.60;97.90;;;;;;5052323;28;20501;-73
2023/10/05 09:49:48;;;;;;;7.70;2.53;;;18.50;99.00;;;;;;5052172;28;20421;-73
2023/10/05 09:52:15;;;;;;;9.57;2.27;;;18.80;98.90;;;;;;5052130;28;20460;-73
2023/10/05 09:54:42;;;;;;;4.60;2.73;;;18.30;99.90;;;;;;5052050;28;21007;-73
2023/10/05 09:57:12;;;;;;;6.50;2.60;;;18.10;99.90;;;;;;5050775;28;20404;-73
2023/10/05 09:59:44;;;;;;;5.40;2.30;;;18.30;99.50;;;;;;5052077;28;20831;-73
2023/10/05 10:02:16;;;;;;;7.97;2.80;;;18.80;99.70;;;;;;5034517;28;20439;-73
2023/10/05 10:04:43;;;;;;;4.70;2.23;;;19.10;99.40;;;;;;5051887;28;20953;-73
2023/10/05 10:07:23;;;;;;;7.67;2.50;;;19.40;97.00;;;;;;5050755;28;20804;-73
2023/10/05 10:09:53;;;;;;;7.30;2.27;;;19.40;96.90;;;;;;5051896;28;20414;-73
2023/10/05 10:12:44;;;;;;;7.37;2.70;;;19.40;97.30;;;;;;5051845;28;20519;-73
2023/10/05 10:15:24;;;;;;;9.33;2.90;;;19.40;95.90;;;;;;5050339;28;20450;-73
2023/10/05 10:18:03;;;;;;;7.70;2.07;;;19.20;94.90;;;;;;5053180;28;20425;-73
2023/10/05 10:20:35;;;;;;;6.00;2.27;;;19.40;94.30;;;;;;5051001;28;20923;-73
2023/10/05 10:23:13;;;;;;;7.30;2.30;;;19.50;94.80;;;;;;5050375;28;20429;-73
2023/10/05 10:25:38;;;;;;;7.47;2.30;;;19.40;95.80;;;;;;5049924;28;20445;-73
2023/10/05 10:31:18;;;;;;;7.13;2.50;;;19.50;94.60;;;;;;5051874;28;20248;-72
2023/10/05 10:33:50;;;;;;;10.03;2.57;;;19.70;95.80;;;;;;5051385;28;20470;-72
2023/10/05 10:36:21;;;;;;;5.07;2.23;;;19.80;95.50;;;;;;5051690;28;20505;-72
2023/10/05 10:38:51;;;;;;;6.20;2.23;;;19.90;94.80;;;;;;5051441;28;20456;-73
2023/10/05 10:41:20;;;;;;;4.07;2.10;;;20.10;94.80;;;;;;5051390;28;20418;-72
2023/10/05 10:43:52;;;;;;;4.43;2.70;;;20.40;92.60;;;;;;5051573;28;20823;-72
2023/10/05 10:46:30;;;;;;;6.77;2.53;;;20.90;92.10;;;;;;5050078;28;20889;-73
2023/10/05 10:49:00;;;;;;;5.77;2.93;;;21.10;91.40;;;;;;5050900;28;20422;-74
2023/10/05 10:51:32;;;;;;;8.07;2.83;;;21.20;90.30;;;;;;5050112;28;20430;-73
2023/10/05 10:54:08;;;;;;;6.37;3.00;;;21.10;87.50;;;;;;5051156;28;20539;-72
2023/10/05 10:56:41;;;;;;;6.20;2.37;;;20.90;88.00;;;;;;5051387;28;20429;-73
2023/10/05 10:59:19;;;;;;;7.03;2.90;;;20.70;88.60;;;;;;5051268;28;20438;-73
2023/10/05 11:01:52;;;;;;;5.40;2.30;;;20.60;89.50;;;;;;5051044;28;20440;-73
2023/10/05 11:04:25;;;;;;;9.03;2.50;;;21.00;86.90;;;;;;5051179;28;20413;-73
2023/10/05 11:06:56;;;;;;;8.40;2.30;;;20.90;85.40;;;;;;5051162;28;20517;-73
2023/10/05 11:09:30;;;;;;;8.40;2.90;;;21.30;84.60;;;;;;5049781;28;21058;-73
2023/10/05 11:12:08;;;;;;;10.07;2.33;;;21.10;85.60;;;;;;5051088;28;20966;-73
2023/10/05 11:14:35;;;;;;;5.20;2.40;;;20.80;86.40;;;;;;5051075;28;20501;-73
2023/10/05 11:17:00;;;;;;;6.40;2.53;;;20.70;85.10;;;;;;5049959;28;20418;-73
2023/10/05 11:19:40;;;;;;;6.23;2.60;;;20.60;84.80;;;;;;5050997;28;20475;-73
2023/10/05 11:22:11;;;;;;;5.77;2.93;;;20.60;82.00;;;;;;5051357;28;20198;-73
2023/10/05 11:25:14;;;;;;;7.73;3.00;;;20.30;85.30;;;;;;5050940;28;20786;-73
2023/10/05 11:27:56;;;;;;;6.90;3.17;;;20.10;83.10;;;;;;5049879;28;20790;-73
2023/10/05 11:30:49;;;;;;;11.20;3.27;;;19.90;85.20;;;;;;5051048;28;20567;-73
2023/10/05 11:33:17;;;;;;;6.47;2.53;;;19.60;87.20;;;;;;5049620;28;20472;-72
2023/10/05 11:35:51;;;;;;;7.63;3.10;;;19.50;89.00;;;;;;5050780;28;20444;-73
2023/10/05 11:38:19;;;;;;;13.07;4.00;;;19.40;87.50;;;;;;5053979;28;20417;-73
2023/10/05 11:40:55;;;;;;;7.10;3.10;;;19.30;86.90;;;;;;5054705;28;20787;-73
2023/10/05 11:43:26;;;;;;;8.63;3.53;;;19.00;86.30;;;;;;5054865;28;20428;-73
2023/10/05 11:45:59;;;;;;;5.80;3.10;;;19.10;86.10;;;;;;5054570;28;20446;-73
2023/10/05 11:48:40;;;;;;;6.10;2.60;;;19.10;90.40;;;;;;5053356;28;20428;-73
2023/10/05 11:51:10;;;;;;;7.30;3.13;;;19.20;89.40;;;;;;5054577;28;20426;-73
2023/10/05 11:53:37;;;;;;;8.23;3.50;;;19.20;88.50;;;;;;5054362;28;20551;-73
2023/10/05 11:56:04;;;;;;;7.47;3.37;;;19.00;86.70;;;;;;5054408;28;20563;-72
2023/10/05 11:58:36;;;;;;;5.30;2.77;;;18.90;86.70;;;;;;5053157;28;20924;-73
2023/10/05 12:01:03;;;;;;;7.13;3.20;;;18.80;87.20;;;;;;5054208;28;20445;-72
2023/10/05 12:03:30;;;;;;;10.00;3.63;;;18.30;89.10;;;;;;5054746;28;20799;-73
2023/10/05 12:06:08;;;;;;;7.47;3.27;;;18.30;90.60;;;;;;5054402;28;20437;-73
2023/10/05 12:08:34;;;;;;;17.80;5.90;;;18.30;92.50;;;;;;5054196;28;20459;-73
2023/10/05 12:11:00;;;;;;;7.23;3.13;;;18.40;92.80;;;;;;5052904;28;20491;-73
2023/10/05 12:13:27;;;;;;;9.77;3.60;;;18.40;93.70;;;;;;5053959;28;20963;-73
2023/10/05 12:15:53;;;;;;;8.73;3.20;;;18.30;93.00;;;;;;5054428;28;20199;-73
2023/10/05 12:18:19;;;;;;;6.00;3.13;;;18.30;94.40;;;;;;5052647;28;20465;-72
2023/10/05 12:20:46;;;;;;;14.20;3.60;;;18.40;93.30;;;;;;5053943;28;20418;-73
2023/10/05 12:23:14;;;;;;;8.80;2.90;;;18.40;93.20;;;;;;5053935;28;20614;-72
2023/10/05 12:25:45;;;;;;;12.43;3.73;;;18.50;93.20;;;;;;5052703;28;20879;-73
2023/10/05 12:28:11;;;;;;;16.53;3.73;;;18.40;94.90;;;;;;5053812;28;20426;-73
2023/10/05 12:30:39;;;;;;;8.93;3.80;;;18.20;96.70;;;;;;5053790;28;20426;-72
2023/10/05 12:33:08;;;;;;;8.33;4.00;;;18.20;96.20;;;;;;5053623;28;20472;-72
2023/10/05 12:35:36;;;;;;;8.03;3.60;;;18.10;94.90;;;;;;5035975;28;20460;-72
2023/10/05 12:38:09;;;;;;;11.73;4.30;;;18.10;96.70;;;;;;5035521;28;20443;-73
2023/10/05 12:40:40;;;;;;;13.97;4.73;;;18.10;96.30;;;;;;5053638;28;20801;-72
2023/10/05 12:43:06;;;;;;;9.53;3.43;;;18.10;97.00;;;;;;5053446;28;20862;-73
2023/10/05 12:45:33;;;;;;;10.40;3.97;;;18.10;97.20;;;;;;5051947;28;20478;-72
2023/10/05 12:47:59;;;;;;;12.23;4.07;;;18.10;98.20;;;;;;5051973;28;20475;-72
2023/10/05 12:50:26;;;;;;;9.00;4.13;;;18.20;97.50;;;;;;5035715;28;20422;-72
2023/10/05 12:52:52;;;;;;;7.23;3.47;;;18.00;97.30;;;;;;5053246;28;20221;-72
2023/10/05 12:55:22;;;;;;;9.10;4.13;;;18.10;96.90;;;;;;5053210;28;20958;-72
2023/10/05 12:57:52;;;;;;;9.30;4.00;;;17.90;97.40;;;;;;5053213;28;20429;-72
2023/10/05 13:00:25;;;;;;;14.63;4.53;;;17.90;96.70;;;;;;5053176;28;20426;-72
2023/10/05 13:02:52;;;;;;;11.37;3.40;;;17.80;97.80;;;;;;5051931;28;20460;-73
2023/10/05 13:05:23;;;;;;;10.50;4.80;;;17.70;98.10;;;;;;5053017;28;20438;-72
2023/10/05 13:07:50;;;;;;;11.60;4.60;;;17.70;99.90;;;;;;5053138;28;20504;-72
2023/10/05 13:10:26;;;;;;;11.77;4.50;;;17.60;99.90;;;;;;5051747;28;20792;-72
2023/10/05 13:12:53;;;;;;;9.00;3.37;;;17.40;99.90;;;;;;5052908;28;20473;-71
2023/10/05 13:15:24;;;;;;;15.17;4.53;;;17.30;99.90;;;;;;5052826;28;20521;-73
2023/10/05 13:17:55;;;;;;;13.10;4.77;;;17.30;99.90;;;;;;5051732;28;20815;-73
2023/10/05 13:20:24;;;;;;;10.33;4.50;;;17.20;99.90;;;;;;5052799;28;20458;-73
2023/10/05 13:22:53;;;;;;;12.03;4.27;;;17.20;99.90;;;;;;5051573;28;20426;-73
2023/10/05 13:25:22;;;;;;;7.97;3.77;;;17.20;99.90;;;;;;5052663;28;20451;-73
2023/10/05 13:27:48;;;;;;;10.53;4.00;;;17.10;99.90;;;;;;5052730;28;20564;-73
2023/10/05 13:30:22;;;;;;;12.97;4.50;;;17.00;99.90;;;;;;5052579;28;20416;-73
2023/10/05 13:32:48;;;;;;;12.00;4.40;;;17.00;99.90;;;;;;5052552;28;20456;-73
2023/10/05 13:35:18;;;;;;;10.40;4.00;;;16.90;99.90;;;;;;5052547;28;20441;-73